Time;durP1;ratioP1;P1;durP2;ratioP2;P2;SDS_P1;SDS_P2;PMS_P1;PMS_P2;Temp;Humidity;BMP_temperature;BMP_pressure;BME280_temperature;BME280_humidity;BME280_pressure;Samples;Min_cycle;Max_cycle;Signal;HPM_P1;HPM_P2
2022/10/11 00:02:19;;;;;;;;;1.00;1.00;;;;;16.60;100.00;102084.06;5053913;28;46073;-71
2022/10/11 00:04:44;;;;;;;;;4.67;1.00;;;;;16.58;100.00;102083.16;5036840;28;45292;-70
2022/10/11 00:07:10;;;;;;;;;1.00;1.00;;;;;16.57;100.00;102092.94;5037660;28;45593;-69
2022/10/11 00:09:35;;;;;;;;;1.00;1.00;;;;;16.55;100.00;102088.47;5037523;28;46081;-70
2022/10/11 00:12:00;;;;;;;;;3.00;1.00;;;;;16.55;100.00;102092.03;5035964;28;46058;-69
2022/10/11 00:14:26;;;;;;;;;1.00;1.00;;;;;16.55;100.00;102089.34;5037830;28;45212;-70
2022/10/11 00:16:52;;;;;;;;;3.00;2.00;;;;;16.53;100.00;102082.25;5036355;28;45571;-71
2022/10/11 00:19:18;;;;;;;;;2.33;1.67;;;;;16.53;100.00;102093.81;5036636;28;45601;-69
2022/10/11 00:21:44;;;;;;;;;0.67;0.67;;;;;16.53;100.00;102103.56;5036152;28;45916;-71
2022/10/11 00:24:11;;;;;;;;;5.33;2.00;;;;;16.51;100.00;102100.88;5037545;28;45419;-70
2022/10/11 00:26:37;;;;;;;;;1.33;1.33;;;;;16.54;100.00;102106.25;5038265;28;45918;-70
2022/10/11 00:29:02;;;;;;;;;2.00;2.00;;;;;16.53;100.00;102096.47;5036521;28;46699;-71
2022/10/11 00:31:27;;;;;;;;;5.33;1.00;;;;;16.52;100.00;102102.69;5037202;28;45496;-69
2022/10/11 00:33:53;;;;;;;;;3.33;1.00;;;;;16.56;100.00;102106.25;5038223;28;45757;-70
2022/10/11 00:36:20;;;;;;;;;4.00;1.00;;;;;16.56;100.00;102108.91;5037568;28;45554;-70
2022/10/11 00:38:45;;;;;;;;;2.33;0.33;;;;;16.55;100.00;102105.34;5037248;28;45668;-69
2022/10/11 00:41:11;;;;;;;;;0.67;0.00;;;;;16.55;100.00;102109.81;5037787;28;45427;-70
2022/10/11 00:43:36;;;;;;;;;3.00;0.67;;;;;16.52;100.00;102110.69;5036940;28;45221;-70
2022/10/11 00:46:04;;;;;;;;;2.00;0.33;;;;;16.56;100.00;102109.81;5037802;28;45542;-71
2022/10/11 00:48:39;;;;;;;;;2.00;0.67;;;;;16.57;100.00;102114.28;5036892;28;46777;-69
2022/10/11 00:51:21;;;;;;;;;1.00;1.00;;;;;16.56;100.00;102111.59;5036386;28;45417;-70
2022/10/11 00:53:48;;;;;;;;;4.33;1.00;;;;;16.53;100.00;102108.91;5036222;28;45490;-71
2022/10/11 00:56:19;;;;;;;;;4.00;2.00;;;;;16.53;100.00;102115.13;5035844;28;45650;-69
2022/10/11 00:58:45;;;;;;;;;7.33;1.00;;;;;16.54;100.00;102113.34;5037186;28;46868;-70
2022/10/11 01:01:10;;;;;;;;;1.00;1.00;;;;;16.49;100.00;102111.53;5037452;28;45398;-69
2022/10/11 01:03:37;;;;;;;;;3.67;1.33;;;;;16.50;100.00;102113.31;5037323;28;45720;-69
2022/10/11 01:06:03;;;;;;;;;0.00;0.00;;;;;16.50;100.00;102109.75;5036185;28;45559;-71
2022/10/11 01:08:28;;;;;;;;;3.67;1.00;;;;;16.49;100.00;102116.00;5037113;28;46593;-71
2022/10/11 01:10:54;;;;;;;;;4.00;1.00;;;;;16.50;100.00;102123.09;5036299;28;50275;-70
2022/10/11 01:13:56;;;;;;;;;2.00;1.00;;;;;16.49;100.00;102116.88;5036855;28;45352;-71
2022/10/11 01:16:35;;;;;;;;;0.00;0.00;;;;;16.46;100.00;102116.88;5032622;28;45471;-70
2022/10/11 01:19:38;;;;;;;;;2.00;0.67;;;;;16.45;100.00;102116.84;5026144;28;46624;-70
2022/10/11 01:22:33;;;;;;;;;4.00;1.00;;;;;16.43;100.00;102118.59;5036623;28;45324;-70
2022/10/11 01:25:13;;;;;;;;;2.33;1.00;;;;;16.42;100.00;102116.84;5036498;28;45245;-69
2022/10/11 01:27:52;;;;;;;;;2.00;1.00;;;;;16.41;100.00;102117.72;5034621;28;45367;-70
2022/10/11 01:30:23;;;;;;;;;1.67;1.33;;;;;16.40;100.00;102113.25;5048453;28;45715;-70
2022/10/11 01:33:18;;;;;;;;;0.67;0.00;;;;;16.41;100.00;102121.28;5035903;28;45289;-69
2022/10/11 01:36:00;;;;;;;;;0.00;0.00;;;;;16.41;100.00;102121.28;5022751;28;45375;-70
2022/10/11 01:38:31;;;;;;;;;5.00;1.00;;;;;16.40;100.00;102111.47;5037223;28;45241;-70
2022/10/11 01:41:18;;;;;;;;;0.33;0.00;;;;;16.40;100.00;102115.91;5036639;28;46565;-70
2022/10/11 01:43:44;;;;;;;;;5.00;1.00;;;;;16.41;100.00;102120.38;5035636;28;45323;-71
2022/10/11 01:46:10;;;;;;;;;1.67;1.00;;;;;16.38;100.00;102118.56;5034595;28;45450;-70
2022/10/11 01:48:54;;;;;;;;;3.33;1.33;;;;;16.38;100.00;102107.91;5036739;28;45533;-69
2022/10/11 01:51:22;;;;;;;;;2.00;1.00;;;;;16.39;100.00;102108.78;5031533;28;45983;-70
2022/10/11 01:54:06;;;;;;;;;1.33;1.00;;;;;16.39;100.00;102119.47;5034819;28;45406;-70
2022/10/11 01:57:09;;;;;;;;;3.67;0.00;;;;;16.38;100.00;102115.91;5036761;28;45483;-70
2022/10/11 02:00:00;;;;;;;;;4.00;0.67;;;;;16.38;100.00;102115.03;5037127;28;45573;-70
2022/10/11 02:02:25;;;;;;;;;2.67;1.00;;;;;16.35;100.00;102120.31;5020485;28;46583;-71
2022/10/11 02:04:55;;;;;;;;;1.00;1.00;;;;;16.34;100.00;102122.09;5036603;28;45360;-70
2022/10/11 02:07:34;;;;;;;;;2.33;1.00;;;;;16.32;100.00;102113.19;5035033;28;45546;-71
2022/10/11 02:10:12;;;;;;;;;1.33;1.00;;;;;16.31;100.00;102102.53;5034669;28;45431;-71
2022/10/11 02:12:49;;;;;;;;;0.33;0.00;;;;;16.32;100.00;102110.53;5035979;28;47004;-70
2022/10/11 02:15:16;;;;;;;;;1.33;0.00;;;;;16.29;100.00;102105.16;5035914;28;45396;-70
2022/10/11 02:17:48;;;;;;;;;0.67;0.67;;;;;16.30;100.00;102116.72;5051518;28;45533;-70
2022/10/11 02:20:18;;;;;;;;;1.00;1.00;;;;;16.29;100.00;102112.28;5035939;28;45484;-71
2022/10/11 02:22:46;;;;;;;;;0.67;0.67;;;;;16.27;100.00;102114.03;5033790;28;46570;-71
2022/10/11 02:25:16;;;;;;;;;4.67;0.67;;;;;16.27;100.00;102114.03;5034831;28;45327;-70
2022/10/11 02:27:44;;;;;;;;;2.00;0.67;;;;;16.27;100.00;102116.72;5034154;28;45387;-71
2022/10/11 02:30:10;;;;;;;;;2.00;0.00;;;;;16.27;100.00;102114.94;5035222;28;45806;-70
2022/10/11 02:32:38;;;;;;;;;0.67;0.67;;;;;16.23;100.00;102108.66;5036129;28;46576;-70
2022/10/11 02:35:05;;;;;;;;;2.00;1.00;;;;;16.22;100.00;102109.56;5034197;28;45643;-70
2022/10/11 02:37:53;;;;;;;;;2.00;0.00;;;;;16.21;100.00;102110.44;5034233;28;45293;-70
2022/10/11 02:40:31;;;;;;;;;5.67;1.00;;;;;16.21;100.00;102115.78;5036327;28;45276;-69
2022/10/11 02:43:02;;;;;;;;;2.67;1.00;;;;;16.18;100.00;102122.84;5035782;28;45901;-70
2022/10/11 02:45:35;;;;;;;;;0.00;0.00;;;;;16.19;100.00;102122.88;5036781;28;45368;-70
2022/10/11 02:48:00;;;;;;;;;2.00;0.33;;;;;16.18;100.00;102121.06;5021133;28;46263;-70
2022/10/11 02:50:26;;;;;;;;;2.00;0.00;;;;;16.18;100.00;102123.72;5039323;28;45658;-71
2022/10/11 02:52:52;;;;;;;;;2.33;0.00;;;;;16.18;100.00;102115.75;5038347;28;46551;-70
2022/10/11 02:55:17;;;;;;;;;2.00;0.00;;;;;16.15;100.00;102112.19;5039134;28;45226;-71
2022/10/11 02:57:43;;;;;;;;;2.00;0.67;;;;;16.14;100.00;102111.28;5039295;28;45385;-70
2022/10/11 03:00:09;;;;;;;;;1.33;0.00;;;;;16.15;100.00;102117.50;5039046;28;45699;-70
2022/10/11 03:02:34;;;;;;;;;0.00;0.00;;;;;16.15;100.00;102123.72;5039292;28;45423;-69
2022/10/11 03:05:00;;;;;;;;;0.00;0.00;;;;;16.13;100.00;102116.56;5038964;28;45269;-71
2022/10/11 03:07:25;;;;;;;;;0.00;0.00;;;;;16.12;100.00;102120.13;5038794;28;45467;-70
2022/10/11 03:09:50;;;;;;;;;1.67;0.00;;;;;16.10;100.00;102128.13;5038939;28;45323;-69
2022/10/11 03:12:16;;;;;;;;;0.00;0.00;;;;;16.10;100.00;102127.22;5030975;28;47390;-71
2022/10/11 03:14:41;;;;;;;;;1.67;0.33;;;;;16.08;100.00;102124.53;5039214;28;45458;-70
2022/10/11 03:17:07;;;;;;;;;4.00;0.00;;;;;16.09;100.00;102129.00;5035589;28;45542;-69
2022/10/11 03:19:32;;;;;;;;;0.00;0.00;;;;;16.09;100.00;102134.34;5038956;28;45640;-69
2022/10/11 03:21:58;;;;;;;;;0.00;0.00;;;;;16.07;100.00;102128.06;5036134;28;47449;-69
2022/10/11 03:24:23;;;;;;;;;0.67;0.00;;;;;16.09;100.00;102134.34;5038440;28;45629;-69
2022/10/11 03:26:49;;;;;;;;;0.00;0.00;;;;;16.08;100.00;102136.97;5033308;28;45458;-71
2022/10/11 03:29:14;;;;;;;;;0.00;0.00;;;;;16.04;100.00;102136.06;5038289;28;45662;-70
2022/10/11 03:31:39;;;;;;;;;0.33;0.33;;;;;16.03;100.00;102133.34;5038470;28;52083;-69
2022/10/11 03:34:05;;;;;;;;;2.00;1.00;;;;;16.02;100.00;102126.25;5038354;28;45240;-70
2022/10/11 03:36:30;;;;;;;;;5.67;0.00;;;;;15.97;100.00;102129.75;5038638;28;45312;-70
2022/10/11 03:38:55;;;;;;;;;3.33;0.00;;;;;15.98;100.00;102128.00;5038693;28;45455;-70
2022/10/11 03:41:21;;;;;;;;;1.33;0.00;;;;;15.94;100.00;102135.06;5038027;28;52575;-70
2022/10/11 03:43:46;;;;;;;;;0.67;0.67;;;;;15.93;100.00;102137.72;5038297;28;45509;-70
2022/10/11 03:46:12;;;;;;;;;3.00;1.00;;;;;15.88;100.00;102136.78;5037767;28;45618;-71
2022/10/11 03:48:37;;;;;;;;;1.00;0.00;;;;;15.84;100.00;102143.84;5038709;28;45493;-70
2022/10/11 03:51:03;;;;;;;;;0.00;0.00;;;;;15.78;100.00;102148.22;5015823;28;48791;-71
2022/10/11 03:53:28;;;;;;;;;0.00;0.00;;;;;15.74;100.00;102146.41;5037809;28;45465;-70
2022/10/11 03:55:54;;;;;;;;;2.67;1.00;;;;;15.66;100.00;102155.22;5037625;28;45355;-70
2022/10/11 03:58:20;;;;;;;;;2.00;0.00;;;;;15.61;100.00;102151.56;5038688;28;45232;-70
2022/10/11 04:00:46;;;;;;;;;0.00;0.00;;;;;15.59;100.00;102155.97;5036742;28;45902;-69
2022/10/11 04:03:11;;;;;;;;;0.00;0.00;;;;;15.52;100.00;102150.56;5037567;28;45177;-71
2022/10/11 04:05:37;;;;;;;;;0.00;0.00;;;;;15.50;100.00;102152.28;5009485;28;45427;-69
2022/10/11 04:08:02;;;;;;;;;0.67;0.00;;;;;15.39;100.00;102146.84;5038305;28;45537;-70
2022/10/11 04:10:29;;;;;;;;;4.00;0.00;;;;;15.40;100.00;102157.53;5037838;28;46665;-70
2022/10/11 04:12:55;;;;;;;;;0.00;0.00;;;;;15.34;100.00;102157.44;5038561;28;45546;-69
2022/10/11 04:15:20;;;;;;;;;0.33;0.33;;;;;15.30;100.00;102158.28;5037014;28;45631;-70
2022/10/11 04:17:45;;;;;;;;;3.33;1.00;;;;;15.27;100.00;102163.56;5038244;28;45529;-69
2022/10/11 04:20:11;;;;;;;;;0.67;0.00;;;;;15.24;100.00;102174.16;5037557;28;46864;-70
2022/10/11 04:22:37;;;;;;;;;3.67;0.67;;;;;15.18;100.00;102166.13;5036388;28;45477;-69
2022/10/11 04:25:03;;;;;;;;;1.00;1.00;;;;;15.14;100.00;102164.28;5037526;28;45506;-69
2022/10/11 04:27:29;;;;;;;;;2.33;0.00;;;;;15.12;100.00;102173.97;5037284;28;45537;-70
2022/10/11 04:29:54;;;;;;;;;0.67;0.00;;;;;15.10;100.00;102173.97;5036563;28;46643;-70
2022/10/11 04:32:20;;;;;;;;;0.67;0.00;;;;;15.08;100.00;102177.50;5036513;28;45363;-70
2022/10/11 04:34:45;;;;;;;;;2.33;1.00;;;;;15.06;100.00;102181.88;5037382;28;45307;-71
2022/10/11 04:37:11;;;;;;;;;0.00;0.00;;;;;14.99;100.00;102175.59;5036372;28;45304;-69
2022/10/11 04:39:37;;;;;;;;;0.00;0.00;;;;;14.98;100.00;102170.25;5036226;28;45611;-70
2022/10/11 04:42:02;;;;;;;;;1.00;0.00;;;;;14.97;100.00;102176.41;5037681;28;45539;-70
2022/10/11 04:44:28;;;;;;;;;4.00;1.00;;;;;14.93;100.00;102176.41;5037407;28;46040;-70
2022/10/11 04:46:53;;;;;;;;;3.67;0.67;;;;;14.91;100.00;102166.59;5037747;28;45339;-70
2022/10/11 04:49:19;;;;;;;;;0.67;0.67;;;;;14.90;100.00;102175.44;5036671;28;45529;-70
2022/10/11 04:51:44;;;;;;;;;1.33;1.00;;;;;14.88;100.00;102170.13;5036305;28;45520;-70
2022/10/11 04:54:09;;;;;;;;;0.67;0.67;;;;;14.86;100.00;102176.25;5036384;28;45626;-70
2022/10/11 04:56:35;;;;;;;;;1.00;1.00;;;;;14.84;100.00;102181.56;5036545;28;45394;-71
2022/10/11 04:59:00;;;;;;;;;1.67;0.00;;;;;14.79;100.00;102172.63;5037092;28;46108;-70
2022/10/11 05:01:25;;;;;;;;;0.00;0.00;;;;;14.80;100.00;102181.50;5032857;28;45440;-70
2022/10/11 05:03:51;;;;;;;;;3.67;0.67;;;;;14.77;100.00;102179.69;5034822;28;45497;-69
2022/10/11 05:06:16;;;;;;;;;1.00;0.00;;;;;14.74;100.00;102165.47;5037011;28;45652;-69
2022/10/11 05:08:42;;;;;;;;;0.00;0.00;;;;;14.73;100.00;102185.84;5034897;28;46798;-69
2022/10/11 05:11:11;;;;;;;;;2.67;0.67;;;;;14.71;100.00;102174.28;5036274;28;45395;-71
2022/10/11 05:13:36;;;;;;;;;0.00;0.00;;;;;14.70;100.00;102177.81;5037282;28;46208;-69
2022/10/11 05:16:03;;;;;;;;;2.67;1.00;;;;;14.66;100.00;102176.88;5037455;28;45365;-69
2022/10/11 05:18:28;;;;;;;;;4.00;1.00;;;;;14.66;100.00;102176.88;5035095;28;47115;-70
2022/10/11 05:21:18;;;;;;;;;1.67;0.33;;;;;14.65;100.00;102184.84;5036949;28;45460;-69
2022/10/11 05:23:44;;;;;;;;;1.00;1.00;;;;;14.63;100.00;102187.44;5033329;28;45168;-69
2022/10/11 05:26:09;;;;;;;;;3.00;0.00;;;;;14.61;100.00;102181.22;5033624;28;45795;-70
2022/10/11 05:28:35;;;;;;;;;0.00;0.00;;;;;14.58;100.00;102174.97;5035853;28;46829;-69
2022/10/11 05:31:00;;;;;;;;;0.00;0.00;;;;;14.59;100.00;102179.41;5035290;28;45273;-70
2022/10/11 05:33:26;;;;;;;;;2.00;0.33;;;;;14.54;100.00;102175.75;5036572;28;45477;-71
2022/10/11 05:35:51;;;;;;;;;2.67;1.00;;;;;14.55;100.00;102172.25;5036987;28;45484;-70
2022/10/11 05:38:18;;;;;;;;;1.33;1.00;;;;;14.50;100.00;102168.63;5036166;28;47136;-70
2022/10/11 05:40:43;;;;;;;;;2.00;0.00;;;;;14.50;100.00;102172.19;5036639;28;45404;-69
2022/10/11 05:43:09;;;;;;;;;3.00;2.00;;;;;14.52;100.00;102181.06;5035133;28;45524;-70
2022/10/11 05:45:39;;;;;;;;;0.00;0.00;;;;;14.51;100.00;102173.97;5036206;28;45690;-69
2022/10/11 05:48:04;;;;;;;;;1.00;1.00;;;;;14.48;100.00;102170.34;5036187;28;47106;-70
2022/10/11 05:50:30;;;;;;;;;0.67;0.67;;;;;14.49;100.00;102167.75;5035988;28;45490;-71
2022/10/11 05:52:55;;;;;;;;;6.00;0.00;;;;;14.49;100.00;102177.44;5036173;28;45561;-69
2022/10/11 05:55:21;;;;;;;;;2.00;1.00;;;;;14.49;100.00;102177.44;5033060;28;45416;-70
2022/10/11 05:57:46;;;;;;;;;1.00;1.00;;;;;14.48;100.00;102183.66;5034865;28;46453;-68
2022/10/11 06:00:12;;;;;;;;;1.67;1.00;;;;;14.44;100.00;102176.47;5031736;28;59987;-69
2022/10/11 06:02:37;;;;;;;;;2.00;0.67;;;;;14.46;100.00;102186.25;5033600;28;45501;-68
2022/10/11 06:05:03;;;;;;;;;1.00;1.00;;;;;14.44;100.00;102177.38;5033746;28;48041;-68
2022/10/11 06:07:28;;;;;;;;;0.00;0.00;;;;;14.42;100.00;102173.78;5032984;28;46169;-68
2022/10/11 06:09:54;;;;;;;;;0.00;0.00;;;;;14.41;100.00;102172.00;5027345;28;45838;-68
2022/10/11 06:12:20;;;;;;;;;2.00;0.67;;;;;14.40;100.00;102172.88;5172257;22;52041;-68
2022/10/11 06:14:46;;;;;;;;;0.00;0.00;;;;;14.39;100.00;102181.72;5025762;28;45612;-67
2022/10/11 06:17:11;;;;;;;;;5.33;0.33;;;;;14.41;100.00;102185.28;5034028;28;46808;-69
2022/10/11 06:19:36;;;;;;;;;2.67;1.00;;;;;14.39;100.00;102182.59;5034375;28;45466;-68
2022/10/11 06:22:02;;;;;;;;;1.67;1.00;;;;;14.38;100.00;102193.19;5036155;28;59879;-68
2022/10/11 06:24:27;;;;;;;;;3.67;1.00;;;;;14.38;100.00;102195.84;5035444;28;46042;-68
2022/10/11 06:26:53;;;;;;;;;1.00;1.00;;;;;14.36;100.00;102197.59;5034250;28;63665;-68
2022/10/11 06:29:18;;;;;;;;;3.33;1.00;;;;;14.35;100.00;102194.03;5034592;28;45585;-68
2022/10/11 06:31:44;;;;;;;;;2.00;2.00;;;;;14.35;100.00;102199.34;5035431;28;45240;-69
2022/10/11 06:34:10;;;;;;;;;3.00;1.00;;;;;14.33;100.00;102194.91;5034480;28;45669;-68
2022/10/11 06:36:35;;;;;;;;;1.67;1.00;;;;;14.34;100.00;102202.88;5034264;28;62832;-68
2022/10/11 06:39:00;;;;;;;;;11.00;3.00;;;;;14.33;100.00;102206.41;5035304;28;57835;-68
2022/10/11 06:41:28;;;;;;;;;3.67;1.00;;;;;14.33;100.00;102208.19;5035825;28;45571;-68
2022/10/11 06:43:53;;;;;;;;;0.00;0.00;;;;;14.34;100.00;102209.97;5034068;28;45355;-68
2022/10/11 06:46:20;;;;;;;;;4.33;1.00;;;;;14.33;100.00;102210.84;5030149;28;45746;-68
2022/10/11 06:48:46;;;;;;;;;0.00;0.00;;;;;14.30;100.00;102214.31;5034941;28;45375;-69
2022/10/11 06:51:13;;;;;;;;;1.00;1.00;;;;;14.33;100.00;102217.03;5035543;28;45717;-68
2022/10/11 06:53:39;;;;;;;;;1.33;0.00;;;;;14.33;100.00;102206.41;5035237;28;45524;-68
2022/10/11 06:56:09;;;;;;;;;0.67;0.67;;;;;14.33;100.00;102217.03;5035740;28;46493;-68
2022/10/11 06:58:35;;;;;;;;;2.67;1.00;;;;;14.32;100.00;102206.38;5035529;28;45288;-68
2022/10/11 07:01:03;;;;;;;;;1.00;1.00;;;;;14.33;100.00;102219.69;5035565;28;45470;-69
2022/10/11 07:03:29;;;;;;;;;3.00;1.00;;;;;14.31;100.00;102216.09;5035046;28;45508;-68
2022/10/11 07:06:01;;;;;;;;;1.00;1.00;;;;;14.33;100.00;102225.03;5031215;28;46634;-70
2022/10/11 07:08:27;;;;;;;;;2.00;1.00;;;;;14.33;100.00;102219.69;5031863;28;45564;-69
2022/10/11 07:10:52;;;;;;;;;2.00;0.00;;;;;14.35;100.00;102230.34;5034959;28;45419;-70
2022/10/11 07:13:18;;;;;;;;;2.00;1.00;;;;;14.33;100.00;102229.44;5035735;28;46308;-69
2022/10/11 07:15:43;;;;;;;;;1.00;1.00;;;;;14.33;100.00;102224.13;5031325;28;53743;-70
2022/10/11 07:18:09;;;;;;;;;3.00;1.00;;;;;14.33;100.00;102225.03;5033310;28;45372;-70
2022/10/11 07:20:34;;;;;;;;;4.67;1.00;;;;;14.37;100.00;102234.81;5034479;28;45398;-70
2022/10/11 07:23:00;;;;;;;;;2.33;1.00;;;;;14.37;100.00;102234.81;5035571;28;45598;-69
2022/10/11 07:25:25;;;;;;;;;0.33;0.33;;;;;14.36;100.00;102233.03;5032816;28;53213;-69
2022/10/11 07:27:50;;;;;;;;;1.00;1.00;;;;;14.38;100.00;102233.97;5033208;28;45514;-69
2022/10/11 07:30:16;;;;;;;;;3.00;1.00;;;;;14.40;100.00;102240.19;5031515;28;45614;-70
2022/10/11 07:32:41;;;;;;;;;1.00;1.00;;;;;14.40;100.00;102240.19;5036930;28;45580;-69
2022/10/11 07:35:07;;;;;;;;;0.00;0.00;;;;;14.44;100.00;102251.78;5037227;28;45502;-69
2022/10/11 07:37:33;;;;;;;;;4.00;1.00;;;;;14.42;100.00;102245.53;5035786;28;45537;-69
2022/10/11 07:39:58;;;;;;;;;1.00;1.00;;;;;14.42;100.00;102257.03;5040917;28;45460;-69
2022/10/11 07:42:23;;;;;;;;;2.00;0.67;;;;;14.46;100.00;102259.78;5037512;28;45478;-70
2022/10/11 07:44:49;;;;;;;;;1.00;1.00;;;;;14.46;100.00;102257.13;5037230;28;48822;-69
2022/10/11 07:47:14;;;;;;;;;4.33;1.00;;;;;14.44;100.00;102254.44;5030361;28;45486;-70
2022/10/11 07:49:40;;;;;;;;;0.33;0.33;;;;;14.49;100.00;102265.16;5036103;28;45407;-70
2022/10/11 07:52:05;;;;;;;;;1.00;1.00;;;;;14.47;100.00;102259.81;5037392;28;45382;-69
2022/10/11 07:54:31;;;;;;;;;2.00;2.00;;;;;14.51;100.00;102269.66;5036365;28;47154;-69
2022/10/11 07:56:57;;;;;;;;;1.33;1.00;;;;;14.52;100.00;102268.78;5035546;28;45454;-69
2022/10/11 07:59:22;;;;;;;;;2.00;1.00;;;;;14.51;100.00;102272.31;5036007;28;45541;-69
2022/10/11 08:01:47;;;;;;;;;3.33;1.33;;;;;14.54;100.00;102280.34;5035709;28;45813;-69
2022/10/11 08:04:13;;;;;;;;;3.67;1.67;;;;;14.56;100.00;102281.25;5039549;28;48794;-69
2022/10/11 08:06:39;;;;;;;;;2.00;1.00;;;;;14.58;100.00;102282.16;5036551;28;45546;-69
2022/10/11 08:09:05;;;;;;;;;1.00;1.00;;;;;14.57;100.00;102282.16;5037075;28;45628;-69
2022/10/11 08:11:33;;;;;;;;;3.33;0.33;;;;;14.60;100.00;102287.53;5033003;28;45561;-69
2022/10/11 08:14:00;;;;;;;;;2.33;1.00;;;;;14.57;100.00;102285.69;5035118;28;47683;-69
2022/10/11 08:16:25;;;;;;;;;3.00;1.00;;;;;14.57;100.00;102280.38;5017507;28;45533;-69
2022/10/11 08:18:50;;;;;;;;;6.00;1.33;;;;;14.60;100.00;102288.44;5036990;28;46281;-69
2022/10/11 08:21:17;;;;;;;;;4.00;1.00;;;;;14.60;100.00;102283.13;5039663;28;45912;-69
2022/10/11 08:23:43;;;;;;;;;1.00;1.00;;;;;14.62;100.00;102281.38;5035585;28;46757;-69
2022/10/11 08:26:09;;;;;;;;;1.33;1.00;;;;;14.64;100.00;102279.63;5035712;28;45411;-69
2022/10/11 08:28:34;;;;;;;;;4.00;1.33;;;;;14.67;100.00;102289.44;5037939;28;45387;-69
2022/10/11 08:31:00;;;;;;;;;1.00;1.00;;;;;14.68;100.00;102281.47;5052761;28;45720;-70
2022/10/11 08:33:26;;;;;;;;;2.00;0.00;;;;;14.72;100.00;102286.84;5040477;28;46703;-70
2022/10/11 08:35:52;;;;;;;;;3.00;1.00;;;;;14.73;100.00;102283.31;5036656;28;45461;-68
2022/10/11 08:38:18;;;;;;;;;3.00;1.00;;;;;14.75;100.00;102290.44;5035112;28;45571;-69
2022/10/11 08:40:52;;;;;;;;;2.00;2.00;;;;;14.75;100.00;102293.09;5037605;28;45327;-69
2022/10/11 08:43:27;;;;;;;;;1.33;1.00;;;;;14.78;100.00;102294.94;5037070;28;46194;-68
2022/10/11 08:45:55;;;;;;;;;1.00;1.00;;;;;14.78;100.00;102292.28;5034118;28;45300;-69
2022/10/11 08:48:41;;;;;;;;;2.33;2.00;;;;;14.79;100.00;102300.25;5035886;28;45478;-69
2022/10/11 08:51:44;;;;;;;;;3.00;1.00;;;;;14.82;100.00;102294.13;5036232;28;45347;-69
2022/10/11 08:54:45;;;;;;;;;1.33;1.33;;;;;14.85;100.00;102294.16;5010853;28;47690;-68
2022/10/11 08:57:17;;;;;;;;;3.00;2.00;;;;;14.87;100.00;102298.66;5011643;28;46125;-68
2022/10/11 08:59:45;;;;;;;;;2.00;1.00;;;;;14.90;100.00;102293.34;5034816;28;45653;-68
2022/10/11 09:02:35;;;;;;;;;1.00;1.00;;;;;14.93;100.00;102303.16;5036846;28;45449;-68
2022/10/11 09:05:01;;;;;;;;;1.33;1.33;;;;;14.96;100.00;102304.97;5034661;28;46633;-68
2022/10/11 09:07:45;;;;;;;;;3.00;2.00;;;;;14.98;100.00;102303.25;5034151;28;45545;-68
2022/10/11 09:10:34;;;;;;;;;2.00;1.67;;;;;15.02;100.00;102302.41;5035216;28;45513;-68
2022/10/11 09:13:30;;;;;;;;;4.00;4.00;;;;;15.05;100.00;102297.16;5031706;28;45559;-68
2022/10/11 09:16:37;;;;;;;;;3.67;1.67;;;;;15.09;100.00;102299.88;5034666;28;46683;-68
2022/10/11 09:19:11;;;;;;;;;2.67;2.00;;;;;15.11;100.00;102303.44;5016187;28;45531;-67
2022/10/11 09:22:05;;;;;;;;;2.00;2.00;;;;;15.13;100.00;102292.84;5038170;28;45461;-68
2022/10/11 09:24:58;;;;;;;;;1.00;1.00;;;;;15.15;100.00;102294.66;5017378;28;46381;-68
2022/10/11 09:27:30;;;;;;;;;1.33;1.33;;;;;15.19;100.00;102284.97;5033362;28;46631;-68
2022/10/11 09:30:05;;;;;;;;;2.00;2.00;;;;;15.26;100.00;102288.59;5036311;28;45507;-68
2022/10/11 09:32:36;;;;;;;;;1.67;1.67;;;;;15.28;100.00;102285.09;5035839;28;45479;-68
2022/10/11 09:35:09;;;;;;;;;1.67;1.67;;;;;15.33;100.00;102286.03;5035811;28;45542;-68
2022/10/11 09:37:47;;;;;;;;;3.00;1.00;;;;;15.38;100.00;102279.03;5035596;28;47574;-68
2022/10/11 09:40:29;;;;;;;;;4.33;2.67;;;;;15.44;100.00;102284.44;5034888;28;45509;-69
2022/10/11 09:42:55;;;;;;;;;4.00;2.00;;;;;15.50;100.00;102282.72;5035410;28;45521;-68
2022/10/11 09:45:21;;;;;;;;;2.00;2.00;;;;;15.57;100.00;102289.94;5033837;28;45557;-68
2022/10/11 09:47:48;;;;;;;;;3.33;2.00;;;;;15.64;100.00;102291.84;5033097;28;46687;-68
2022/10/11 09:50:24;;;;;;;;;4.00;2.33;;;;;15.68;100.00;102277.72;5033984;28;45501;-68
2022/10/11 09:52:52;;;;;;;;;2.00;2.00;;;;;15.75;100.00;102281.34;5035619;28;45537;-68
2022/10/11 09:55:34;;;;;;;;;2.00;2.00;;;;;15.79;100.00;102291.16;5034756;28;45449;-68
2022/10/11 09:58:00;;;;;;;;;4.00;3.00;;;;;15.83;100.00;102280.56;5030870;28;48846;-68
2022/10/11 10:00:29;;;;;;;;;5.00;2.00;;;;;15.86;100.00;102269.03;5034541;28;45498;-68
2022/10/11 10:03:00;;;;;;;;;4.00;2.33;;;;;15.91;100.00;102276.22;5032523;28;45415;-68
2022/10/11 10:05:26;;;;;;;;;2.00;2.00;;;;;15.97;100.00;102275.38;5035603;28;45316;-68
2022/10/11 10:07:58;;;;;;;;;2.00;2.00;;;;;16.02;100.00;102281.66;5035068;28;47469;-69
2022/10/11 10:10:33;;;;;;;;;7.00;2.33;;;;;16.08;100.00;102273.75;5033835;28;45644;-68
2022/10/11 10:13:01;;;;;;;;;5.00;2.00;;;;;16.13;100.00;102273.81;5035194;28;45470;-69
2022/10/11 10:15:33;;;;;;;;;3.00;1.00;;;;;16.17;100.00;102265.84;5035249;28;45438;-69
2022/10/11 10:17:58;;;;;;;;;5.00;3.00;;;;;16.25;100.00;102279.28;5033131;28;45342;-68
2022/10/11 10:20:30;;;;;;;;;6.00;3.00;;;;;16.26;100.00;102275.75;5035233;28;45339;-68
2022/10/11 10:22:58;;;;;;;;;6.00;2.00;;;;;16.33;100.00;102268.69;5042115;28;45590;-67
2022/10/11 10:25:38;;;;;;;;;4.00;3.00;;;;;16.37;100.00;102267.84;5035668;28;45324;-68
2022/10/11 10:28:22;;;;;;;;;3.33;3.00;;;;;16.43;100.00;102268.78;5034646;28;47031;-68
2022/10/11 10:30:56;;;;;;;;;2.33;2.00;;;;;16.48;100.00;102266.19;5046072;28;46053;-69
2022/10/11 10:33:28;;;;;;;;;2.33;2.00;;;;;16.52;100.00;102257.34;5034845;28;45482;-68
2022/10/11 10:35:57;;;;;;;;;4.00;3.00;;;;;16.58;100.00;102256.50;5016256;28;45624;-68
2022/10/11 10:38:36;;;;;;;;;3.00;1.00;;;;;16.63;100.00;102263.66;5033688;28;46026;-68
2022/10/11 10:41:05;;;;;;;;;5.00;4.00;;;;;16.66;100.00;102261.00;5034218;28;45501;-68
2022/10/11 10:43:35;;;;;;;;;1.00;1.00;;;;;16.72;100.00;102258.44;5035551;28;45536;-68
2022/10/11 10:46:10;;;;;;;;;2.33;1.00;;;;;16.80;100.00;102263.84;5032953;28;45434;-68
2022/10/11 10:49:13;;;;;;;;;2.00;1.00;;;;;16.87;100.00;102260.31;5034917;28;46438;-69
2022/10/11 10:52:04;;;;;;;;;3.33;2.00;;;;;16.93;100.00;102263.03;5034184;28;45847;-70
2022/10/11 10:54:42;;;;;;;;;3.00;2.00;;;;;16.98;100.00;102258.63;5034900;28;45325;-69
2022/10/11 10:57:33;;;;;;;;;4.00;2.33;;;;;17.03;100.00;102258.66;5035417;28;45466;-70
2022/10/11 11:00:04;;;;;;;;;1.00;1.00;;;;;17.08;100.00;102259.59;5030919;28;45894;-69
2022/10/11 11:02:51;;;;;;;;;1.00;1.00;;;;;17.12;100.00;102250.72;5035054;28;45498;-71
2022/10/11 11:05:17;;;;;;;;;3.33;1.00;;;;;17.16;100.00;102251.66;5035212;28;45293;-70
2022/10/11 11:07:49;;;;;;;;;2.33;2.00;;;;;17.22;100.00;102257.91;5038746;28;45514;-69
2022/10/11 11:10:18;;;;;;;;;1.67;1.00;;;;;17.25;100.00;102252.59;5037386;28;46784;-69
2022/10/11 11:13:20;;;;;;;;;3.67;1.00;;;;;17.32;100.00;102252.66;5038415;28;45678;-69
2022/10/11 11:15:54;;;;;;;;;3.33;1.00;;;;;17.35;100.00;102258.88;5038564;28;45539;-69
2022/10/11 11:18:38;;;;;;;;;2.33;1.00;;;;;17.39;100.00;102252.69;5037986;28;45304;-70
2022/10/11 11:21:20;;;;;;;;;3.67;1.00;;;;;17.45;100.00;102247.34;5039380;28;47645;-70
2022/10/11 11:23:48;;;;;;;;;1.00;1.00;;;;;17.47;100.00;102248.28;5038018;28;45441;-72
2022/10/11 11:26:22;;;;;;;;;2.33;2.33;;;;;17.52;100.00;102246.53;5034497;28;45487;-72
2022/10/11 11:29:12;;;;;;;;;1.00;0.00;;;;;17.56;100.00;102234.06;5038683;28;45442;-72
2022/10/11 11:32:00;;;;;;;;;2.00;2.00;;;;;17.61;100.00;102240.31;5036971;28;45905;-70